createdAt,value
2023-02-01T00:00:44.377Z,101009.53
2023-02-01T00:03:13.805Z,100995.75
2023-02-01T00:05:41.431Z,100992.44
2023-02-01T00:08:10.558Z,100978.66
2023-02-01T00:10:38.152Z,100988.16
2023-02-01T00:13:05.780Z,100982.13
2023-02-01T00:15:34.575Z,100979.59
2023-02-01T00:18:03.501Z,100974.47
2023-02-01T00:20:31.118Z,100975.28
2023-02-01T00:22:58.806Z,100978.66
2023-02-01T00:25:26.407Z,100961.59
2023-02-01T00:27:53.986Z,100971.88
2023-02-01T00:30:22.202Z,100978.75
2023-02-01T00:32:49.983Z,100988.00
2023-02-01T00:35:18.978Z,100977.78
2023-02-01T00:37:46.625Z,100976.00
2023-02-01T00:40:14.791Z,100967.47
2023-02-01T00:42:42.462Z,100929.75
2023-02-01T00:45:11.231Z,100972.72
2023-02-01T00:47:39.111Z,100976.97
2023-02-01T00:50:07.161Z,100979.41
2023-02-01T00:52:36.139Z,100968.28
2023-02-01T00:55:03.865Z,100965.72
2023-02-01T00:57:31.551Z,100979.34
2023-02-01T00:59:59.159Z,100953.75
2023-02-01T01:02:28.632Z,100964.13
2023-02-01T01:04:56.407Z,100965.78
2023-02-01T01:07:24.001Z,100969.91
2023-02-01T01:09:52.932Z,100963.97
2023-02-01T01:12:20.679Z,100970.84
2023-02-01T01:14:48.417Z,100953.75
2023-02-01T01:17:16.051Z,100962.34
2023-02-01T01:19:43.667Z,100963.13
2023-02-01T01:22:11.365Z,100959.63
2023-02-01T01:24:38.966Z,100962.94
2023-02-01T01:27:08.023Z,100945.97
2023-02-01T01:29:35.643Z,100949.38
2023-02-01T01:32:03.351Z,100938.31
2023-02-01T01:34:31.055Z,100945.13
2023-02-01T01:36:59.384Z,100933.06
2023-02-01T01:39:27.089Z,100941.69
2023-02-01T01:41:54.837Z,100943.38
2023-02-01T01:45:05.721Z,100927.94
2023-02-01T01:47:37.599Z,100933.91
2023-02-01T01:50:08.203Z,100925.34
2023-02-01T01:52:37.024Z,100921.97
2023-02-01T01:55:06.243Z,100894.63
2023-02-01T01:57:36.659Z,100920.19
2023-02-01T02:00:10.630Z,100918.59
2023-02-01T02:02:39.101Z,100915.06
2023-02-01T02:05:07.442Z,100909.88
2023-02-01T02:07:39.617Z,100909.00
2023-02-01T02:10:11.621Z,100901.28
2023-02-01T02:12:41.179Z,100911.63
2023-02-01T02:15:13.840Z,100886.00
2023-02-01T02:17:50.275Z,100895.25
2023-02-01T02:20:51.997Z,100893.59
2023-02-01T02:23:40.052Z,100899.59
2023-02-01T02:26:37.276Z,100879.03
2023-02-01T02:29:35.390Z,100885.00
2023-02-01T02:32:33.984Z,100872.13
2023-02-01T02:35:08.037Z,100875.59
2023-02-01T02:37:41.248Z,100869.47
2023-02-01T02:40:21.976Z,100865.28
2023-02-01T02:43:17.763Z,100860.94
2023-02-01T02:46:09.721Z,100859.31
2023-02-01T02:48:44.699Z,100858.50
2023-02-01T02:51:34.566Z,100862.84
2023-02-01T02:54:25.884Z,100842.22
2023-02-01T02:57:13.280Z,100847.25
2023-02-01T03:00:00.914Z,100831.97
2023-02-01T03:02:47.470Z,100832.78
2023-02-01T03:08:03.715Z,100836.25
2023-02-01T03:10:39.669Z,100837.22
2023-02-01T03:13:09.410Z,100832.94
2023-02-01T03:15:43.052Z,100835.50
2023-02-01T03:18:17.164Z,100843.16
2023-02-01T03:20:49.021Z,100832.91
2023-02-01T03:23:22.769Z,100815.88
2023-02-01T03:25:53.385Z,100831.13
2023-02-01T03:28:22.481Z,100826.84
2023-02-01T03:30:51.728Z,100823.50
2023-02-01T03:33:25.344Z,100823.63
2023-02-01T03:36:03.105Z,100823.69
2023-02-01T03:38:37.448Z,100834.81
2023-02-01T03:41:12.097Z,100825.34
2023-02-01T03:43:49.980Z,100827.06
2023-02-01T03:46:25.729Z,100826.06
2023-02-01T03:48:55.686Z,100803.16
2023-02-01T03:51:25.072Z,100810.63
2023-02-01T03:53:55.623Z,100807.19
2023-02-01T03:56:24.838Z,100759.34
2023-02-01T03:59:00.377Z,100798.78
2023-02-01T04:01:30.234Z,100796.06
2023-02-01T04:03:58.785Z,100782.47
2023-02-01T04:06:27.091Z,100772.22
2023-02-01T04:08:56.198Z,100788.50
2023-02-01T04:11:24.020Z,100753.44
2023-02-01T04:13:51.662Z,100790.25
2023-02-01T04:16:19.361Z,100799.59
2023-02-01T04:18:47.050Z,100799.59
2023-02-01T04:21:14.736Z,100785.91
2023-02-01T04:23:42.427Z,100779.03
2023-02-01T04:26:11.484Z,100781.59
2023-02-01T04:28:39.171Z,100789.34
2023-02-01T04:31:07.117Z,100780.00
2023-02-01T04:33:34.872Z,100774.00
2023-02-01T04:36:02.746Z,100784.91
2023-02-01T04:38:33.062Z,100775.50
2023-02-01T04:41:01.338Z,100784.97
2023-02-01T04:43:30.370Z,100767.06
2023-02-01T04:45:58.078Z,100782.44
2023-02-01T04:48:25.736Z,100774.81
2023-02-01T04:50:53.406Z,100767.91
2023-02-01T04:53:21.166Z,100776.50
2023-02-01T04:55:50.762Z,100791.91
2023-02-01T04:58:18.549Z,100790.22
2023-02-01T05:00:47.668Z,100804.88
2023-02-01T05:03:15.390Z,100768.88
2023-02-01T05:05:43.232Z,100761.25
2023-02-01T05:08:10.945Z,100844.31
2023-02-01T05:10:38.581Z,100836.59
2023-02-01T05:13:23.561Z,100852.84
2023-02-01T05:15:53.708Z,100827.13
2023-02-01T05:18:21.457Z,100840.81
2023-02-01T05:20:49.126Z,100814.13
2023-02-01T05:23:16.833Z,100776.47
2023-02-01T05:25:44.539Z,100767.22
2023-02-01T05:28:12.234Z,100750.03
2023-02-01T05:30:42.267Z,100744.97
2023-02-01T05:33:11.571Z,100727.00
2023-02-01T05:35:39.319Z,100732.16
2023-02-01T05:38:07.006Z,100744.97
2023-02-01T05:40:34.821Z,100762.03
2023-02-01T05:43:02.484Z,100776.63
2023-02-01T05:45:30.227Z,100779.16
2023-02-01T05:47:57.890Z,100775.69
2023-02-01T05:50:26.972Z,100785.91
2023-02-01T05:52:54.644Z,100804.00
2023-02-01T05:55:22.460Z,100776.63
2023-02-01T05:57:50.152Z,100791.09
2023-02-01T06:00:19.633Z,100781.78
2023-02-01T06:02:48.592Z,100768.06
2023-02-01T06:05:16.599Z,100773.22
2023-02-01T06:07:45.646Z,100770.66
2023-02-01T06:10:13.541Z,100776.66
2023-02-01T06:12:41.341Z,100768.09
2023-02-01T06:15:10.173Z,100762.09
2023-02-01T06:17:38.227Z,100749.25
2023-02-01T06:20:07.570Z,100746.69
2023-02-01T06:22:36.975Z,100747.50
2023-02-01T06:25:07.445Z,100762.06
2023-02-01T06:27:35.509Z,100763.75
2023-02-01T06:30:04.421Z,100764.63
2023-02-01T06:32:32.263Z,100768.06
2023-02-01T06:35:01.492Z,100779.13
2023-02-01T06:37:30.442Z,100773.13
2023-02-01T06:39:58.259Z,100766.34
2023-02-01T06:42:27.617Z,100768.91
2023-02-01T06:44:55.291Z,100756.94
2023-02-01T06:47:23.049Z,100761.19
2023-02-01T06:49:50.746Z,100762.94
2023-02-01T06:52:18.499Z,100768.06
2023-02-01T06:54:46.301Z,100770.59
2023-02-01T06:57:14.257Z,100765.53
2023-02-01T06:59:43.322Z,100778.25
2023-02-01T07:02:12.902Z,100770.66
2023-02-01T07:04:40.689Z,100768.94
2023-02-01T07:07:08.493Z,100771.53
2023-02-01T07:09:36.212Z,100774.91
2023-02-01T07:12:03.946Z,100772.38
2023-02-01T07:14:31.774Z,100777.47
2023-02-01T07:17:00.900Z,100772.28
2023-02-01T07:19:28.607Z,100770.63
2023-02-01T07:21:56.396Z,100783.50
2023-02-01T07:24:24.557Z,100780.91
2023-02-01T07:26:52.925Z,100768.09
2023-02-01T07:29:21.757Z,100779.19
2023-02-01T07:31:49.436Z,100784.22
2023-02-01T07:34:18.625Z,100782.53
2023-02-01T07:36:46.478Z,100690.16
2023-02-01T07:39:14.177Z,100781.56
2023-02-01T07:41:41.912Z,100731.97
2023-02-01T07:44:09.641Z,100776.41
2023-02-01T07:46:37.497Z,100775.69
2023-02-01T07:49:05.207Z,100780.75
2023-02-01T07:51:34.554Z,100746.56
2023-02-01T07:54:02.287Z,100778.19
2023-02-01T07:56:29.983Z,100767.88
2023-02-01T07:58:58.260Z,100781.44
2023-02-01T08:01:27.373Z,100790.91
2023-02-01T08:03:56.937Z,100783.16
2023-02-01T08:06:25.823Z,100771.09
2023-02-01T08:08:56.039Z,100776.31
2023-02-01T08:11:25.315Z,100755.00
2023-02-01T08:13:53.423Z,100783.25
2023-02-01T08:16:22.496Z,100783.25
2023-02-01T08:18:50.392Z,100790.78
2023-02-01T08:21:20.987Z,100778.63
2023-02-01T08:23:48.805Z,100803.28
2023-02-01T08:26:19.923Z,100808.66
2023-02-01T08:28:50.423Z,100770.84
2023-02-01T08:31:21.087Z,100804.25
2023-02-01T08:33:51.470Z,100805.22
2023-02-01T08:36:19.951Z,100800.91
2023-02-01T08:38:47.987Z,100805.22
2023-02-01T08:41:19.921Z,100800.72
2023-02-01T08:43:48.829Z,100815.75
2023-02-01T08:46:17.204Z,100816.72
2023-02-01T08:48:47.119Z,100796.03
2023-02-01T08:51:16.867Z,100795.69
2023-02-01T08:53:45.056Z,100779.53
2023-02-01T08:56:14.269Z,100778.19
2023-02-01T08:58:43.757Z,100773.88
2023-02-01T09:01:13.949Z,100769.84
2023-02-01T09:03:41.965Z,100768.66
2023-02-01T09:06:11.945Z,100775.91
2023-02-01T09:08:40.618Z,100765.47
2023-02-01T09:11:11.450Z,100758.66
2023-02-01T09:13:39.257Z,100773.06
2023-02-01T09:16:08.663Z,100743.13
2023-02-01T09:18:36.553Z,100752.63
2023-02-01T09:21:06.561Z,100747.56
2023-02-01T09:23:34.493Z,100758.50
2023-02-01T09:26:02.355Z,100744.09
2023-02-01T09:28:30.207Z,100755.06
2023-02-01T09:30:59.140Z,100755.63
2023-02-01T09:33:30.014Z,100755.19
2023-02-01T09:35:58.556Z,100755.91
2023-02-01T09:38:28.254Z,100766.38
2023-02-01T09:40:57.095Z,100740.88
2023-02-01T09:43:41.128Z,100749.63
2023-02-01T09:46:22.150Z,100771.84
2023-02-01T09:48:54.809Z,100766.53
2023-02-01T09:51:26.710Z,100758.91
2023-02-01T09:54:01.958Z,100769.53
2023-02-01T09:56:38.244Z,100754.88
2023-02-01T09:59:18.670Z,100762.50
2023-02-01T10:01:46.623Z,100763.19
2023-02-01T10:04:17.686Z,100764.88
2023-02-01T10:06:57.668Z,100762.56
2023-02-01T10:09:44.215Z,100766.63
2023-02-01T10:12:50.559Z,100766.25
2023-02-01T10:15:29.783Z,100760.88
2023-02-01T10:18:13.363Z,100759.22
2023-02-01T10:20:54.813Z,100758.09
2023-02-01T10:23:38.994Z,100773.56
2023-02-01T10:26:15.066Z,100764.19
2023-02-01T10:28:44.956Z,100741.38
2023-02-01T10:31:12.723Z,100742.16
2023-02-01T10:33:45.545Z,100731.06
2023-02-01T10:36:19.330Z,100730.28
2023-02-01T10:38:48.215Z,100737.97
2023-02-01T10:41:19.604Z,100722.56
2023-02-01T10:43:52.977Z,100722.22
2023-02-01T10:46:20.937Z,100716.34
2023-02-01T10:48:50.651Z,100697.25
2023-02-01T10:51:25.207Z,100668.97
2023-02-01T10:53:56.400Z,100698.25
2023-02-01T10:56:25.559Z,100692.53
2023-02-01T10:58:54.116Z,100686.19
2023-02-01T11:01:24.300Z,100680.13
2023-02-01T11:03:57.432Z,100674.56
2023-02-01T11:06:30.788Z,100666.19
2023-02-01T11:09:02.044Z,100672.63
2023-02-01T11:11:30.404Z,100663.25
2023-02-01T11:14:00.214Z,100654.88
2023-02-01T11:16:35.226Z,100636.78
2023-02-01T11:19:03.242Z,100658.81
2023-02-01T11:21:33.352Z,100666.00
2023-02-01T11:24:05.007Z,100601.81
2023-02-01T11:26:42.392Z,100674.25
2023-02-01T11:29:14.896Z,100668.13
2023-02-01T11:31:44.031Z,100649.75
2023-02-01T11:34:17.040Z,100676.81
2023-02-01T11:36:47.925Z,100635.22
2023-02-01T11:39:27.509Z,100650.53
2023-02-01T11:42:02.926Z,100652.25
2023-02-01T11:44:36.724Z,100650.25
2023-02-01T11:47:26.913Z,100640.06
2023-02-01T11:49:56.360Z,100645.72
2023-02-01T11:52:41.654Z,100634.53
2023-02-01T11:55:48.053Z,100628.22
2023-02-01T11:58:34.068Z,100631.41
2023-02-01T12:01:21.060Z,100625.63
2023-02-01T12:04:16.195Z,100626.28
2023-02-01T12:06:51.575Z,100620.09
2023-02-01T12:09:36.123Z,100608.78
2023-02-01T12:12:11.114Z,100602.66
2023-02-01T12:14:57.544Z,100601.06
2023-02-01T12:17:56.539Z,100613.22
2023-02-01T12:20:36.988Z,100617.44
2023-02-01T12:23:24.625Z,100620.63
2023-02-01T12:26:24.625Z,100624.41
2023-02-01T12:29:13.145Z,100629.03
2023-02-01T12:32:22.965Z,100646.00
2023-02-01T12:35:06.614Z,100646.97
2023-02-01T12:37:52.193Z,100646.84
2023-02-01T12:40:30.693Z,100652.94
2023-02-01T12:43:05.047Z,100653.72
2023-02-01T12:45:38.682Z,100666.00
2023-02-01T12:48:22.801Z,100669.41
2023-02-01T12:50:54.564Z,100661.81
2023-02-01T12:53:29.264Z,100655.06
2023-02-01T12:56:03.077Z,100660.13
2023-02-01T12:58:41.035Z,100647.13
2023-02-01T13:01:14.620Z,100647.06
2023-02-01T13:03:50.457Z,100639.31
2023-02-01T13:06:21.475Z,100617.25
2023-02-01T13:08:53.359Z,100630.94
2023-02-01T13:11:28.201Z,100622.25
2023-02-01T13:14:05.311Z,100626.66
2023-02-01T13:16:37.281Z,100621.38
2023-02-01T13:19:15.788Z,100617.03
2023-02-01T13:21:48.228Z,100572.72
2023-02-01T13:24:26.978Z,100614.41
2023-02-01T13:26:56.526Z,100626.06
2023-02-01T13:29:26.966Z,100618.88
2023-02-01T13:32:10.655Z,100620.47
2023-02-01T13:35:10.861Z,100619.63
2023-02-01T13:38:07.698Z,100623.03
2023-02-01T13:40:42.825Z,100622.94
2023-02-01T13:43:16.382Z,100621.47
2023-02-01T13:45:50.079Z,100610.38
2023-02-01T13:48:23.918Z,100606.09
2023-02-01T13:50:55.875Z,100629.13
2023-02-01T13:53:29.821Z,100622.03
2023-02-01T13:56:01.210Z,100604.88
2023-02-01T13:58:34.921Z,100606.72
2023-02-01T14:01:37.092Z,100623.66
2023-02-01T14:04:07.501Z,100605.13
2023-02-01T14:06:42.295Z,100611.47
2023-02-01T14:09:26.956Z,100615.81
2023-02-01T14:11:58.131Z,100619.22
2023-02-01T14:15:16.089Z,100603.09
2023-02-01T14:17:45.294Z,100623.69
2023-02-01T14:20:56.812Z,100615.06
2023-02-01T14:23:27.398Z,100625.22
2023-02-01T14:26:15.156Z,100621.88
2023-02-01T14:28:48.448Z,100621.94
2023-02-01T14:31:36.650Z,100631.41
2023-02-01T14:34:17.220Z,100645.34
2023-02-01T14:36:49.932Z,100661.91
2023-02-01T14:39:38.471Z,100696.13
2023-02-01T14:42:17.197Z,100693.63
2023-02-01T14:44:58.657Z,100703.03
2023-02-01T14:47:35.637Z,100693.56
2023-02-01T14:50:29.271Z,100703.84
2023-02-01T14:53:14.563Z,100709.00
2023-02-01T14:55:44.559Z,100708.81
2023-02-01T14:58:20.451Z,100715.56
2023-02-01T15:00:52.393Z,100705.38
2023-02-01T15:03:38.036Z,100710.41
2023-02-01T15:06:22.744Z,100709.56
2023-02-01T15:08:50.567Z,100709.53
2023-02-01T15:11:18.771Z,100708.72
2023-02-01T15:13:53.580Z,100705.34
2023-02-01T15:16:23.700Z,100697.53
2023-02-01T15:18:52.360Z,100675.28
2023-02-01T15:21:28.804Z,100699.25
2023-02-01T15:24:12.792Z,100704.41
2023-02-01T15:26:40.593Z,100696.66
2023-02-01T15:29:13.277Z,100693.34
2023-02-01T15:31:43.938Z,100692.50
2023-02-01T15:34:12.306Z,100689.88
2023-02-01T15:36:45.756Z,100697.69
2023-02-01T15:39:26.756Z,100671.09
2023-02-01T15:41:58.313Z,100701.81
2023-02-01T15:44:41.301Z,100705.41
2023-02-01T15:47:17.070Z,100687.44
2023-02-01T15:49:48.514Z,100692.53
2023-02-01T15:52:24.567Z,100695.06
2023-02-01T15:54:56.141Z,100699.22
2023-02-01T15:57:31.559Z,100708.53
2023-02-01T16:00:01.442Z,100691.47
2023-02-01T16:02:36.151Z,100695.97
2023-02-01T16:05:05.197Z,100708.75
2023-02-01T16:07:36.293Z,100703.50
2023-02-01T16:10:25.089Z,100720.66
2023-02-01T16:12:55.332Z,100724.84
2023-02-01T16:15:23.400Z,100722.28
2023-02-01T16:17:51.373Z,100725.72
2023-02-01T16:20:19.687Z,100730.09
2023-02-01T16:22:48.810Z,100727.47
2023-02-01T16:25:16.726Z,100729.28
2023-02-01T16:27:44.559Z,100732.53
2023-02-01T16:30:12.765Z,100740.09
2023-02-01T16:32:40.833Z,100736.66
2023-02-01T16:35:19.999Z,100745.34
2023-02-01T16:37:49.330Z,100740.97
2023-02-01T16:40:18.955Z,100724.06
2023-02-01T16:42:49.753Z,100750.44
2023-02-01T16:45:17.721Z,100747.09
2023-02-01T16:47:52.242Z,100742.81
2023-02-01T16:50:24.304Z,100655.53
2023-02-01T16:52:54.328Z,100746.97
2023-02-01T16:55:24.035Z,100760.81
2023-02-01T16:57:52.053Z,100747.06
2023-02-01T17:00:25.700Z,100748.63
2023-02-01T17:02:54.556Z,100762.41
2023-02-01T17:05:23.253Z,100761.66
2023-02-01T17:07:51.558Z,100760.88
2023-02-01T17:10:40.978Z,100760.84
2023-02-01T17:13:14.521Z,100761.59
2023-02-01T17:15:45.880Z,100773.38
2023-02-01T17:18:17.265Z,100777.66
2023-02-01T17:20:45.320Z,100779.59
2023-02-01T17:23:13.289Z,100790.88
2023-02-01T17:25:42.977Z,100788.19
2023-02-01T17:28:11.003Z,100795.16
2023-02-01T17:30:40.426Z,100792.53
2023-02-01T17:33:22.602Z,100787.38
2023-02-01T17:35:50.738Z,100788.34
2023-02-01T17:38:19.118Z,100782.19
2023-02-01T17:40:48.372Z,100796.00
2023-02-01T17:43:17.174Z,100801.00
2023-02-01T17:45:51.623Z,100794.28
2023-02-01T17:48:20.442Z,100801.25
2023-02-01T17:50:50.243Z,100794.44
2023-02-01T17:53:20.330Z,100780.66
2023-02-01T17:55:49.390Z,100793.28
2023-02-01T17:58:18.283Z,100791.63
2023-02-01T18:00:47.787Z,100777.22
2023-02-01T18:03:24.331Z,100790.03
2023-02-01T18:05:53.763Z,100790.00
2023-02-01T18:08:23.266Z,100800.34
2023-02-01T18:10:55.856Z,100793.50
2023-02-01T18:13:23.808Z,100759.28
2023-02-01T18:15:51.521Z,100796.84
2023-02-01T18:18:19.381Z,100769.50
2023-02-01T18:20:49.303Z,100773.66
2023-02-01T18:23:19.613Z,100783.97
2023-02-01T18:25:48.195Z,100780.63
2023-02-01T18:28:18.204Z,100783.16
2023-02-01T18:30:48.303Z,100787.34
2023-02-01T18:33:19.111Z,100780.75
2023-02-01T18:35:46.854Z,100793.59
2023-02-01T18:38:14.668Z,100797.75
2023-02-01T18:40:47.747Z,100776.38
2023-02-01T18:43:16.998Z,100782.22
2023-02-01T18:45:45.999Z,100777.91
2023-02-01T18:48:16.052Z,100787.50
2023-02-01T18:50:45.737Z,100782.25
2023-02-01T18:53:15.579Z,100781.50
2023-02-01T18:55:43.653Z,100784.13
2023-02-01T18:58:14.553Z,100777.28
2023-02-01T19:00:44.863Z,100771.22
2023-02-01T19:03:13.135Z,100723.38
2023-02-01T19:05:41.280Z,100773.75
2023-02-01T19:08:10.177Z,100749.06
2023-02-01T19:10:38.634Z,100731.00
2023-02-01T19:13:06.852Z,100772.00
2023-02-01T19:15:35.956Z,100778.81
2023-02-01T19:18:05.134Z,100774.53
2023-02-01T19:20:32.824Z,100779.72
2023-02-01T19:23:00.722Z,100764.34
2023-02-01T19:25:30.376Z,100774.56
2023-02-01T19:27:58.062Z,100772.84
2023-02-01T19:30:26.148Z,100770.41
2023-02-01T19:32:53.957Z,100770.22
2023-02-01T19:35:23.560Z,100768.78
2023-02-01T19:37:51.478Z,100771.31
2023-02-01T19:40:21.086Z,100747.38
2023-02-01T19:42:50.606Z,100758.38
2023-02-01T19:45:18.915Z,100761.00
2023-02-01T19:47:46.775Z,100765.22
2023-02-01T19:50:18.402Z,100762.53
2023-02-01T19:52:47.792Z,100783.97
2023-02-01T19:55:15.830Z,100769.56
2023-02-01T19:57:43.991Z,100774.63
2023-02-01T20:00:15.219Z,100806.41
2023-02-01T20:02:43.851Z,100817.63
2023-02-01T20:05:11.896Z,100811.63
2023-02-01T20:07:40.185Z,100816.84
2023-02-01T20:10:10.917Z,100825.41
2023-02-01T20:12:38.940Z,100820.06
2023-02-01T20:15:08.005Z,100809.88
2023-02-01T20:17:36.460Z,100803.06
2023-02-01T20:20:04.748Z,100797.88
2023-02-01T20:22:32.652Z,100784.22
2023-02-01T20:25:02.410Z,100806.44
2023-02-01T20:27:32.420Z,100803.69
2023-02-01T20:30:00.140Z,100820.09
2023-02-01T20:32:27.885Z,100787.56
2023-02-01T20:34:55.654Z,100813.09
2023-02-01T20:37:23.338Z,100808.81
2023-02-01T20:39:51.110Z,100781.50
2023-02-01T20:42:18.793Z,100800.16
2023-02-01T20:44:47.799Z,100798.66
2023-02-01T20:47:15.546Z,100789.97
2023-02-01T20:49:43.282Z,100781.28
2023-02-01T20:52:11.018Z,100784.97
2023-02-01T20:54:39.296Z,100807.25
2023-02-01T20:57:07.413Z,100813.97
2023-02-01T20:59:35.119Z,100811.53
2023-02-01T21:02:04.556Z,100809.72
2023-02-01T21:04:33.900Z,100824.22
2023-02-01T21:07:02.888Z,100819.81
2023-02-01T21:09:31.002Z,100810.63
2023-02-01T21:11:59.213Z,100812.31
2023-02-01T21:14:26.947Z,100833.75
2023-02-01T21:16:54.597Z,100836.00
2023-02-01T21:19:27.715Z,100838.66
2023-02-01T21:21:55.778Z,100829.31
2023-02-01T21:24:23.490Z,100821.44
2023-02-01T21:26:51.146Z,100830.22
2023-02-01T21:29:19.103Z,100834.47
2023-02-01T21:31:46.805Z,100851.50
2023-02-01T21:34:14.483Z,100844.84
2023-02-01T21:36:43.484Z,100848.31
2023-02-01T21:39:12.155Z,100847.41
2023-02-01T21:41:57.693Z,100836.16
2023-02-01T21:44:25.491Z,100844.72
2023-02-01T21:46:55.382Z,100861.75
2023-02-01T21:49:23.784Z,100834.53
2023-02-01T21:51:53.267Z,100865.44
2023-02-01T21:54:21.008Z,100860.34
2023-02-01T21:56:48.724Z,100865.22
2023-02-01T21:59:16.434Z,100848.13
2023-02-01T22:01:44.125Z,100858.50
2023-02-01T22:04:12.414Z,100871.47
2023-02-01T22:06:42.408Z,100874.06
2023-02-01T22:09:16.931Z,100889.38
2023-02-01T22:11:44.709Z,100879.31
2023-02-01T22:14:12.899Z,100874.91
2023-02-01T22:16:40.929Z,100884.41
2023-02-01T22:19:09.923Z,100873.31
2023-02-01T22:21:38.925Z,100871.59
2023-02-01T22:24:07.252Z,100914.44
2023-02-01T22:26:36.480Z,100910.16
2023-02-01T22:29:04.355Z,100900.69
2023-02-01T22:31:32.487Z,100892.97
2023-02-01T22:34:00.438Z,100894.56
2023-02-01T22:36:28.260Z,100899.75
2023-02-01T22:38:57.557Z,100900.56
2023-02-01T22:41:25.452Z,100888.59
2023-02-01T22:43:54.497Z,100896.34
2023-02-01T22:46:25.375Z,100886.13
2023-02-01T22:48:53.189Z,100902.38
2023-02-01T22:51:23.058Z,100895.41
2023-02-01T22:53:57.050Z,100885.06
2023-02-01T22:56:26.215Z,100885.22
2023-02-01T22:58:59.488Z,100889.53
2023-02-01T23:01:27.555Z,100899.78
2023-02-01T23:03:58.107Z,100871.56
2023-02-01T23:06:26.794Z,100892.03
2023-02-01T23:08:58.902Z,100940.03
2023-02-01T23:11:27.882Z,100954.56
2023-02-01T23:13:56.406Z,100957.09
2023-02-01T23:16:25.937Z,100957.19
2023-02-01T23:18:53.675Z,100953.72
2023-02-01T23:21:23.535Z,100963.22
2023-02-01T23:23:53.576Z,100972.63
2023-02-01T23:26:22.526Z,100972.59
2023-02-01T23:28:52.217Z,100964.91
2023-02-01T23:31:20.022Z,100978.69
2023-02-01T23:33:50.122Z,100982.13
2023-02-01T23:36:18.153Z,100986.44
2023-02-01T23:38:46.690Z,100986.44
2023-02-01T23:41:16.154Z,100937.59
2023-02-01T23:43:59.303Z,100993.19
2023-02-01T23:46:29.377Z,100990.78
2023-02-01T23:48:59.324Z,100989.00
2023-02-01T23:51:27.906Z,100982.19
2023-02-01T23:53:56.410Z,101005.25
2023-02-01T23:56:26.410Z,100942.75
2023-02-01T23:58:56.725Z,100997.63
